createdAt,value
2024-05-09T00:08:43.961Z,84.30
2024-05-09T00:23:44.221Z,84.27
2024-05-09T00:38:44.948Z,84.18
2024-05-09T00:53:45.786Z,84.61
2024-05-09T01:08:46.062Z,84.58
2024-05-09T01:23:48.718Z,84.48
2024-05-09T01:38:47.248Z,84.18
2024-05-09T01:53:48.479Z,84.20
2024-05-09T02:08:48.661Z,84.46
2024-05-09T02:23:49.509Z,84.30
2024-05-09T02:38:49.808Z,84.22
2024-05-09T02:53:52.673Z,84.40
2024-05-09T03:08:51.260Z,83.53
2024-05-09T03:23:52.031Z,83.81
2024-05-09T03:38:52.692Z,83.78
2024-05-09T03:53:53.434Z,83.96
2024-05-09T04:08:54.149Z,83.70
2024-05-09T04:23:54.888Z,84.37
2024-05-09T04:38:55.533Z,84.32
2024-05-09T04:53:56.311Z,84.14
2024-05-09T05:08:57.032Z,83.86
2024-05-09T05:23:57.965Z,84.02
2024-05-09T05:38:58.212Z,83.85
2024-05-09T05:53:58.838Z,83.34
2024-05-09T06:08:59.578Z,82.80
2024-05-09T06:24:02.614Z,81.67
2024-05-09T06:39:00.596Z,80.41
2024-05-09T06:54:01.295Z,74.98
2024-05-09T07:24:50.156Z,63.31
2024-05-09T07:39:50.840Z,65.11
2024-05-09T07:54:51.407Z,62.81
2024-05-09T08:09:52.106Z,67.72
2024-05-09T08:24:53.555Z,65.04
2024-05-09T08:39:54.344Z,64.70
2024-05-09T08:54:54.574Z,61.13
2024-05-09T09:09:56.537Z,58.75
2024-05-09T09:24:55.017Z,58.10
2024-05-09T09:39:56.473Z,58.58
2024-05-09T09:54:55.940Z,58.45
2024-05-09T10:09:57.184Z,57.85
2024-05-09T10:24:57.363Z,56.90
2024-05-09T10:39:57.971Z,57.24
